sensor_id;sensor_type;location;lat;lon;timestamp;P1;durP1;ratioP1;P2;durP2;ratioP2
60038;SDS011;45916;52.734;6.544;2024-02-26T00:01:49;30.52;;;23.20;;
60038;SDS011;45916;52.734;6.544;2024-02-26T00:04:15;30.17;;;22.23;;
60038;SDS011;45916;52.734;6.544;2024-02-26T00:06:42;31.90;;;24.48;;
60038;SDS011;45916;52.734;6.544;2024-02-26T00:09:09;32.50;;;24.88;;
60038;SDS011;45916;52.734;6.544;2024-02-26T00:11:38;31.15;;;24.52;;
60038;SDS011;45916;52.734;6.544;2024-02-26T00:14:04;29.63;;;24.33;;
60038;SDS011;45916;52.734;6.544;2024-02-26T00:16:30;30.75;;;25.60;;
60038;SDS011;45916;52.734;6.544;2024-02-26T00:18:56;31.48;;;25.98;;
60038;SDS011;45916;52.734;6.544;2024-02-26T00:21:22;31.55;;;24.85;;
60038;SDS011;45916;52.734;6.544;2024-02-26T00:23:49;33.67;;;25.75;;
60038;SDS011;45916;52.734;6.544;2024-02-26T00:26:16;33.22;;;25.05;;
60038;SDS011;45916;52.734;6.544;2024-02-26T00:28:42;33.88;;;24.73;;
60038;SDS011;45916;52.734;6.544;2024-02-26T00:31:08;35.08;;;25.38;;
60038;SDS011;45916;52.734;6.544;2024-02-26T00:33:34;30.80;;;23.55;;
60038;SDS011;45916;52.734;6.544;2024-02-26T00:36:00;31.48;;;24.77;;
60038;SDS011;45916;52.734;6.544;2024-02-26T00:38:27;32.92;;;23.92;;
60038;SDS011;45916;52.734;6.544;2024-02-26T00:40:53;31.23;;;24.60;;
60038;SDS011;45916;52.734;6.544;2024-02-26T00:43:19;30.95;;;23.25;;
60038;SDS011;45916;52.734;6.544;2024-02-26T00:45:45;30.67;;;23.15;;
60038;SDS011;45916;52.734;6.544;2024-02-26T00:48:12;31.20;;;23.65;;
60038;SDS011;45916;52.734;6.544;2024-02-26T00:50:39;31.70;;;23.20;;
60038;SDS011;45916;52.734;6.544;2024-02-26T00:53:05;30.98;;;23.77;;
60038;SDS011;45916;52.734;6.544;2024-02-26T00:55:31;29.30;;;22.23;;
60038;SDS011;45916;52.734;6.544;2024-02-26T00:57:57;28.55;;;23.70;;
60038;SDS011;45916;52.734;6.544;2024-02-26T01:00:23;28.98;;;22.77;;
60038;SDS011;45916;52.734;6.544;2024-02-26T01:02:49;31.27;;;23.08;;
60038;SDS011;45916;52.734;6.544;2024-02-26T01:05:15;30.65;;;23.15;;
60038;SDS011;45916;52.734;6.544;2024-02-26T01:07:44;32.72;;;24.33;;
60038;SDS011;45916;52.734;6.544;2024-02-26T01:10:10;28.77;;;22.40;;
60038;SDS011;45916;52.734;6.544;2024-02-26T01:12:36;31.45;;;21.88;;
60038;SDS011;45916;52.734;6.544;2024-02-26T01:15:02;29.63;;;21.90;;
60038;SDS011;45916;52.734;6.544;2024-02-26T01:17:28;32.03;;;23.05;;
60038;SDS011;45916;52.734;6.544;2024-02-26T01:19:54;28.45;;;22.20;;
60038;SDS011;45916;52.734;6.544;2024-02-26T01:22:21;30.60;;;22.65;;
60038;SDS011;45916;52.734;6.544;2024-02-26T01:24:47;30.98;;;22.08;;
60038;SDS011;45916;52.734;6.544;2024-02-26T01:27:13;30.15;;;21.95;;
60038;SDS011;45916;52.734;6.544;2024-02-26T01:29:40;29.27;;;22.52;;
60038;SDS011;45916;52.734;6.544;2024-02-26T01:32:06;28.92;;;21.90;;
60038;SDS011;45916;52.734;6.544;2024-02-26T01:34:32;31.52;;;21.58;;
60038;SDS011;45916;52.734;6.544;2024-02-26T01:36:59;29.38;;;21.48;;
60038;SDS011;45916;52.734;6.544;2024-02-26T01:39:25;27.35;;;21.35;;
60038;SDS011;45916;52.734;6.544;2024-02-26T01:41:54;27.13;;;22.08;;
60038;SDS011;45916;52.734;6.544;2024-02-26T01:44:20;30.33;;;22.83;;
60038;SDS011;45916;52.734;6.544;2024-02-26T01:46:46;29.48;;;21.80;;
60038;SDS011;45916;52.734;6.544;2024-02-26T01:49:13;30.38;;;22.38;;
60038;SDS011;45916;52.734;6.544;2024-02-26T01:51:41;33.50;;;23.80;;
60038;SDS011;45916;52.734;6.544;2024-02-26T01:54:07;31.52;;;22.95;;
60038;SDS011;45916;52.734;6.544;2024-02-26T01:56:34;30.38;;;22.45;;
60038;SDS011;45916;52.734;6.544;2024-02-26T01:59:01;34.72;;;24.35;;
60038;SDS011;45916;52.734;6.544;2024-02-26T02:01:27;32.53;;;23.02;;
60038;SDS011;45916;52.734;6.544;2024-02-26T02:03:56;33.67;;;22.40;;
60038;SDS011;45916;52.734;6.544;2024-02-26T02:08:49;28.45;;;21.00;;
60038;SDS011;45916;52.734;6.544;2024-02-26T02:11:16;29.40;;;21.85;;
60038;SDS011;45916;52.734;6.544;2024-02-26T02:13:42;33.95;;;22.17;;
60038;SDS011;45916;52.734;6.544;2024-02-26T02:16:08;32.20;;;22.40;;
60038;SDS011;45916;52.734;6.544;2024-02-26T02:18:34;30.13;;;19.95;;
60038;SDS011;45916;52.734;6.544;2024-02-26T02:21:01;30.60;;;20.55;;
60038;SDS011;45916;52.734;6.544;2024-02-26T02:23:27;31.05;;;21.75;;
60038;SDS011;45916;52.734;6.544;2024-02-26T02:25:53;33.38;;;22.45;;
60038;SDS011;45916;52.734;6.544;2024-02-26T02:28:20;33.30;;;21.25;;
60038;SDS011;45916;52.734;6.544;2024-02-26T02:30:46;33.03;;;22.73;;
60038;SDS011;45916;52.734;6.544;2024-02-26T02:33:12;34.65;;;23.92;;
60038;SDS011;45916;52.734;6.544;2024-02-26T02:35:40;31.60;;;22.77;;
60038;SDS011;45916;52.734;6.544;2024-02-26T02:38:06;34.40;;;23.35;;
60038;SDS011;45916;52.734;6.544;2024-02-26T02:40:32;34.25;;;24.02;;
60038;SDS011;45916;52.734;6.544;2024-02-26T02:42:58;33.35;;;23.23;;
60038;SDS011;45916;52.734;6.544;2024-02-26T02:45:25;37.75;;;24.65;;
60038;SDS011;45916;52.734;6.544;2024-02-26T02:47:51;38.90;;;23.52;;
60038;SDS011;45916;52.734;6.544;2024-02-26T02:50:17;39.92;;;25.83;;
60038;SDS011;45916;52.734;6.544;2024-02-26T02:52:43;37.95;;;24.80;;
60038;SDS011;45916;52.734;6.544;2024-02-26T02:55:09;38.55;;;25.85;;
60038;SDS011;45916;52.734;6.544;2024-02-26T02:57:36;38.30;;;27.35;;
60038;SDS011;45916;52.734;6.544;2024-02-26T03:00:07;41.60;;;25.67;;
60038;SDS011;45916;52.734;6.544;2024-02-26T03:02:33;41.17;;;25.52;;
60038;SDS011;45916;52.734;6.544;2024-02-26T03:05:01;40.15;;;26.42;;
60038;SDS011;45916;52.734;6.544;2024-02-26T03:07:27;40.30;;;27.20;;
60038;SDS011;45916;52.734;6.544;2024-02-26T03:09:54;41.65;;;26.38;;
60038;SDS011;45916;52.734;6.544;2024-02-26T03:12:20;47.58;;;28.52;;
60038;SDS011;45916;52.734;6.544;2024-02-26T03:14:46;47.95;;;28.80;;
60038;SDS011;45916;52.734;6.544;2024-02-26T03:17:13;46.17;;;29.42;;
60038;SDS011;45916;52.734;6.544;2024-02-26T03:19:39;48.40;;;28.23;;
60038;SDS011;45916;52.734;6.544;2024-02-26T03:22:05;49.35;;;28.85;;
60038;SDS011;45916;52.734;6.544;2024-02-26T03:24:31;50.60;;;30.13;;
60038;SDS011;45916;52.734;6.544;2024-02-26T03:26:57;47.83;;;28.98;;
60038;SDS011;45916;52.734;6.544;2024-02-26T03:29:23;50.97;;;29.40;;
60038;SDS011;45916;52.734;6.544;2024-02-26T03:31:49;49.35;;;29.35;;
60038;SDS011;45916;52.734;6.544;2024-02-26T03:34:15;47.35;;;29.48;;
60038;SDS011;45916;52.734;6.544;2024-02-26T03:36:42;51.95;;;30.27;;
60038;SDS011;45916;52.734;6.544;2024-02-26T03:39:08;49.05;;;30.17;;
60038;SDS011;45916;52.734;6.544;2024-02-26T03:41:34;51.40;;;31.48;;
60038;SDS011;45916;52.734;6.544;2024-02-26T03:44:00;52.35;;;30.70;;
60038;SDS011;45916;52.734;6.544;2024-02-26T03:46:27;59.78;;;31.90;;
60038;SDS011;45916;52.734;6.544;2024-02-26T03:48:53;56.08;;;33.70;;
60038;SDS011;45916;52.734;6.544;2024-02-26T03:51:19;56.47;;;33.85;;
60038;SDS011;45916;52.734;6.544;2024-02-26T03:53:45;58.90;;;32.42;;
60038;SDS011;45916;52.734;6.544;2024-02-26T03:56:11;55.30;;;32.72;;
60038;SDS011;45916;52.734;6.544;2024-02-26T03:58:41;54.60;;;33.72;;
60038;SDS011;45916;52.734;6.544;2024-02-26T04:01:07;58.72;;;34.05;;
60038;SDS011;45916;52.734;6.544;2024-02-26T04:03:34;62.30;;;35.72;;
60038;SDS011;45916;52.734;6.544;2024-02-26T04:06:00;63.65;;;39.03;;
60038;SDS011;45916;52.734;6.544;2024-02-26T04:08:26;61.38;;;35.55;;
60038;SDS011;45916;52.734;6.544;2024-02-26T04:10:52;62.42;;;36.38;;
60038;SDS011;45916;52.734;6.544;2024-02-26T04:13:19;64.90;;;37.25;;
60038;SDS011;45916;52.734;6.544;2024-02-26T04:15:45;65.07;;;36.35;;
60038;SDS011;45916;52.734;6.544;2024-02-26T04:18:12;61.17;;;35.60;;
60038;SDS011;45916;52.734;6.544;2024-02-26T04:20:39;66.28;;;36.03;;
60038;SDS011;45916;52.734;6.544;2024-02-26T04:23:07;75.45;;;37.60;;
60038;SDS011;45916;52.734;6.544;2024-02-26T04:25:33;69.60;;;37.58;;
60038;SDS011;45916;52.734;6.544;2024-02-26T04:27:59;68.22;;;38.17;;
60038;SDS011;45916;52.734;6.544;2024-02-26T04:30:25;73.90;;;38.67;;
60038;SDS011;45916;52.734;6.544;2024-02-26T04:32:51;73.50;;;38.80;;
60038;SDS011;45916;52.734;6.544;2024-02-26T04:35:17;71.68;;;39.08;;
60038;SDS011;45916;52.734;6.544;2024-02-26T04:37:43;73.00;;;38.22;;
60038;SDS011;45916;52.734;6.544;2024-02-26T04:40:09;71.53;;;36.53;;
60038;SDS011;45916;52.734;6.544;2024-02-26T04:42:35;67.28;;;37.83;;
60038;SDS011;45916;52.734;6.544;2024-02-26T04:45:02;70.47;;;37.50;;
60038;SDS011;45916;52.734;6.544;2024-02-26T04:47:28;68.43;;;38.03;;
60038;SDS011;45916;52.734;6.544;2024-02-26T04:49:55;60.55;;;32.63;;
60038;SDS011;45916;52.734;6.544;2024-02-26T04:52:21;73.97;;;37.33;;
60038;SDS011;45916;52.734;6.544;2024-02-26T04:54:47;70.53;;;37.33;;
60038;SDS011;45916;52.734;6.544;2024-02-26T04:57:13;67.60;;;37.80;;
60038;SDS011;45916;52.734;6.544;2024-02-26T04:59:39;66.38;;;36.75;;
60038;SDS011;45916;52.734;6.544;2024-02-26T05:02:07;62.53;;;36.00;;
60038;SDS011;45916;52.734;6.544;2024-02-26T05:04:33;64.82;;;34.40;;
60038;SDS011;45916;52.734;6.544;2024-02-26T05:06:59;63.50;;;35.15;;
60038;SDS011;45916;52.734;6.544;2024-02-26T05:09:25;63.20;;;35.25;;
60038;SDS011;45916;52.734;6.544;2024-02-26T05:11:51;59.65;;;33.42;;
60038;SDS011;45916;52.734;6.544;2024-02-26T05:14:17;55.63;;;32.03;;
60038;SDS011;45916;52.734;6.544;2024-02-26T05:16:44;57.80;;;33.17;;
60038;SDS011;45916;52.734;6.544;2024-02-26T05:19:10;55.47;;;32.80;;
60038;SDS011;45916;52.734;6.544;2024-02-26T05:21:36;53.97;;;34.20;;
60038;SDS011;45916;52.734;6.544;2024-02-26T05:24:02;59.72;;;33.28;;
60038;SDS011;45916;52.734;6.544;2024-02-26T05:26:28;52.63;;;32.33;;
60038;SDS011;45916;52.734;6.544;2024-02-26T05:28:54;50.80;;;30.65;;
60038;SDS011;45916;52.734;6.544;2024-02-26T05:31:24;49.70;;;29.15;;
60038;SDS011;45916;52.734;6.544;2024-02-26T05:33:50;47.13;;;28.48;;
60038;SDS011;45916;52.734;6.544;2024-02-26T05:36:22;47.22;;;27.85;;
60038;SDS011;45916;52.734;6.544;2024-02-26T05:38:49;40.30;;;25.60;;
60038;SDS011;45916;52.734;6.544;2024-02-26T05:41:15;42.75;;;25.63;;
60038;SDS011;45916;52.734;6.544;2024-02-26T05:43:45;35.92;;;24.67;;
60038;SDS011;45916;52.734;6.544;2024-02-26T05:46:11;37.45;;;23.27;;
60038;SDS011;45916;52.734;6.544;2024-02-26T05:48:37;28.95;;;21.17;;
60038;SDS011;45916;52.734;6.544;2024-02-26T05:51:04;31.52;;;22.05;;
60038;SDS011;45916;52.734;6.544;2024-02-26T05:53:30;29.48;;;19.15;;
60038;SDS011;45916;52.734;6.544;2024-02-26T05:55:56;27.33;;;19.23;;
60038;SDS011;45916;52.734;6.544;2024-02-26T05:58:22;27.42;;;19.10;;
60038;SDS011;45916;52.734;6.544;2024-02-26T06:00:48;23.63;;;17.80;;
60038;SDS011;45916;52.734;6.544;2024-02-26T06:03:14;23.02;;;17.73;;
60038;SDS011;45916;52.734;6.544;2024-02-26T06:05:40;22.10;;;15.88;;
60038;SDS011;45916;52.734;6.544;2024-02-26T06:08:06;22.95;;;16.67;;
60038;SDS011;45916;52.734;6.544;2024-02-26T06:10:32;21.63;;;16.58;;
60038;SDS011;45916;52.734;6.544;2024-02-26T06:12:58;23.83;;;17.20;;
60038;SDS011;45916;52.734;6.544;2024-02-26T06:15:24;24.50;;;16.13;;
60038;SDS011;45916;52.734;6.544;2024-02-26T06:17:50;22.95;;;15.95;;
60038;SDS011;45916;52.734;6.544;2024-02-26T06:20:16;22.45;;;16.83;;
60038;SDS011;45916;52.734;6.544;2024-02-26T06:22:43;22.65;;;17.10;;
60038;SDS011;45916;52.734;6.544;2024-02-26T06:25:10;24.48;;;16.30;;
60038;SDS011;45916;52.734;6.544;2024-02-26T06:27:36;26.63;;;17.05;;
60038;SDS011;45916;52.734;6.544;2024-02-26T06:30:02;23.33;;;16.05;;
60038;SDS011;45916;52.734;6.544;2024-02-26T06:32:28;22.08;;;16.38;;
60038;SDS011;45916;52.734;6.544;2024-02-26T06:34:54;22.05;;;15.25;;
60038;SDS011;45916;52.734;6.544;2024-02-26T06:37:21;21.23;;;15.38;;
60038;SDS011;45916;52.734;6.544;2024-02-26T06:39:47;22.90;;;15.98;;
60038;SDS011;45916;52.734;6.544;2024-02-26T06:42:13;18.42;;;14.23;;
60038;SDS011;45916;52.734;6.544;2024-02-26T06:44:39;21.35;;;15.07;;
60038;SDS011;45916;52.734;6.544;2024-02-26T06:47:05;19.83;;;14.30;;
60038;SDS011;45916;52.734;6.544;2024-02-26T06:49:31;19.05;;;14.55;;
60038;SDS011;45916;52.734;6.544;2024-02-26T06:51:57;20.38;;;14.98;;
60038;SDS011;45916;52.734;6.544;2024-02-26T06:54:23;20.23;;;13.93;;
60038;SDS011;45916;52.734;6.544;2024-02-26T06:56:49;18.80;;;13.40;;
60038;SDS011;45916;52.734;6.544;2024-02-26T06:59:15;18.52;;;13.23;;
60038;SDS011;45916;52.734;6.544;2024-02-26T07:01:42;19.58;;;13.10;;
60038;SDS011;45916;52.734;6.544;2024-02-26T07:04:08;17.05;;;12.07;;
60038;SDS011;45916;52.734;6.544;2024-02-26T07:06:36;16.83;;;12.05;;
60038;SDS011;45916;52.734;6.544;2024-02-26T07:09:02;19.58;;;13.73;;
60038;SDS011;45916;52.734;6.544;2024-02-26T07:11:28;18.15;;;13.00;;
60038;SDS011;45916;52.734;6.544;2024-02-26T07:13:54;18.00;;;11.80;;
60038;SDS011;45916;52.734;6.544;2024-02-26T07:16:20;17.25;;;11.60;;
60038;SDS011;45916;52.734;6.544;2024-02-26T07:18:46;17.88;;;11.68;;
60038;SDS011;45916;52.734;6.544;2024-02-26T07:21:12;16.48;;;10.95;;
60038;SDS011;45916;52.734;6.544;2024-02-26T07:23:38;16.58;;;10.98;;
60038;SDS011;45916;52.734;6.544;2024-02-26T07:26:04;14.30;;;9.77;;
60038;SDS011;45916;52.734;6.544;2024-02-26T07:28:30;16.92;;;11.55;;
60038;SDS011;45916;52.734;6.544;2024-02-26T07:30:56;14.88;;;10.57;;
60038;SDS011;45916;52.734;6.544;2024-02-26T07:33:23;15.57;;;11.18;;
60038;SDS011;45916;52.734;6.544;2024-02-26T07:35:49;16.60;;;11.00;;
60038;SDS011;45916;52.734;6.544;2024-02-26T07:38:15;15.50;;;10.93;;
60038;SDS011;45916;52.734;6.544;2024-02-26T07:40:41;14.95;;;11.35;;
60038;SDS011;45916;52.734;6.544;2024-02-26T07:43:07;15.27;;;10.90;;
60038;SDS011;45916;52.734;6.544;2024-02-26T07:45:33;15.57;;;10.73;;
60038;SDS011;45916;52.734;6.544;2024-02-26T07:48:01;15.18;;;10.27;;
60038;SDS011;45916;52.734;6.544;2024-02-26T07:50:27;14.45;;;9.65;;
60038;SDS011;45916;52.734;6.544;2024-02-26T07:52:53;13.50;;;10.35;;
60038;SDS011;45916;52.734;6.544;2024-02-26T07:55:19;14.70;;;10.23;;
60038;SDS011;45916;52.734;6.544;2024-02-26T07:57:45;12.85;;;9.30;;
60038;SDS011;45916;52.734;6.544;2024-02-26T08:00:12;14.20;;;9.80;;
60038;SDS011;45916;52.734;6.544;2024-02-26T08:02:41;14.98;;;9.68;;
60038;SDS011;45916;52.734;6.544;2024-02-26T08:05:08;11.85;;;8.63;;
60038;SDS011;45916;52.734;6.544;2024-02-26T08:07:34;11.05;;;8.30;;
60038;SDS011;45916;52.734;6.544;2024-02-26T08:10:00;12.70;;;8.85;;
60038;SDS011;45916;52.734;6.544;2024-02-26T08:12:26;11.13;;;8.20;;
60038;SDS011;45916;52.734;6.544;2024-02-26T08:14:52;10.55;;;8.05;;
60038;SDS011;45916;52.734;6.544;2024-02-26T08:17:18;10.80;;;7.75;;
60038;SDS011;45916;52.734;6.544;2024-02-26T08:19:44;12.07;;;8.32;;
60038;SDS011;45916;52.734;6.544;2024-02-26T08:22:10;13.13;;;8.50;;
60038;SDS011;45916;52.734;6.544;2024-02-26T08:24:41;10.13;;;7.53;;
60038;SDS011;45916;52.734;6.544;2024-02-26T08:27:07;11.70;;;7.68;;
60038;SDS011;45916;52.734;6.544;2024-02-26T08:29:33;10.25;;;7.90;;
60038;SDS011;45916;52.734;6.544;2024-02-26T08:31:59;10.73;;;7.15;;
60038;SDS011;45916;52.734;6.544;2024-02-26T08:34:25;11.95;;;7.90;;
60038;SDS011;45916;52.734;6.544;2024-02-26T08:36:51;9.50;;;6.65;;
60038;SDS011;45916;52.734;6.544;2024-02-26T08:39:18;10.73;;;7.70;;
60038;SDS011;45916;52.734;6.544;2024-02-26T08:41:44;10.80;;;7.55;;
60038;SDS011;45916;52.734;6.544;2024-02-26T08:44:10;11.00;;;7.85;;
60038;SDS011;45916;52.734;6.544;2024-02-26T08:46:36;9.95;;;6.57;;
60038;SDS011;45916;52.734;6.544;2024-02-26T08:49:03;11.07;;;7.55;;
60038;SDS011;45916;52.734;6.544;2024-02-26T08:51:29;10.82;;;8.00;;
60038;SDS011;45916;52.734;6.544;2024-02-26T08:53:56;9.48;;;7.18;;
60038;SDS011;45916;52.734;6.544;2024-02-26T08:56:22;10.98;;;7.60;;
60038;SDS011;45916;52.734;6.544;2024-02-26T08:58:48;10.45;;;6.95;;
60038;SDS011;45916;52.734;6.544;2024-02-26T09:01:16;11.38;;;7.78;;
60038;SDS011;45916;52.734;6.544;2024-02-26T09:03:42;10.43;;;7.00;;
60038;SDS011;45916;52.734;6.544;2024-02-26T09:06:08;10.65;;;7.75;;
60038;SDS011;45916;52.734;6.544;2024-02-26T09:08:36;10.07;;;7.55;;
60038;SDS011;45916;52.734;6.544;2024-02-26T09:11:03;10.90;;;7.10;;
60038;SDS011;45916;52.734;6.544;2024-02-26T09:13:29;9.90;;;6.97;;
60038;SDS011;45916;52.734;6.544;2024-02-26T09:15:55;11.38;;;7.03;;
60038;SDS011;45916;52.734;6.544;2024-02-26T09:18:21;9.45;;;7.15;;
60038;SDS011;45916;52.734;6.544;2024-02-26T09:20:47;11.65;;;8.23;;
60038;SDS011;45916;52.734;6.544;2024-02-26T09:23:13;11.27;;;8.02;;
60038;SDS011;45916;52.734;6.544;2024-02-26T09:25:39;10.10;;;7.63;;
60038;SDS011;45916;52.734;6.544;2024-02-26T09:28:05;11.00;;;6.95;;
60038;SDS011;45916;52.734;6.544;2024-02-26T09:30:31;10.70;;;7.88;;
60038;SDS011;45916;52.734;6.544;2024-02-26T09:32:57;10.40;;;7.50;;
60038;SDS011;45916;52.734;6.544;2024-02-26T09:35:23;9.88;;;7.30;;
60038;SDS011;45916;52.734;6.544;2024-02-26T09:37:51;11.20;;;8.17;;
60038;SDS011;45916;52.734;6.544;2024-02-26T09:40:17;11.93;;;7.63;;
60038;SDS011;45916;52.734;6.544;2024-02-26T09:42:44;11.40;;;7.70;;
60038;SDS011;45916;52.734;6.544;2024-02-26T09:45:29;10.73;;;7.57;;
60038;SDS011;45916;52.734;6.544;2024-02-26T09:47:56;9.93;;;7.35;;
60038;SDS011;45916;52.734;6.544;2024-02-26T09:50:22;10.15;;;7.68;;
60038;SDS011;45916;52.734;6.544;2024-02-26T09:52:49;11.80;;;8.05;;
60038;SDS011;45916;52.734;6.544;2024-02-26T09:55:15;10.15;;;7.53;;
60038;SDS011;45916;52.734;6.544;2024-02-26T09:57:45;13.73;;;8.02;;
60038;SDS011;45916;52.734;6.544;2024-02-26T10:00:20;9.48;;;6.82;;
60038;SDS011;45916;52.734;6.544;2024-02-26T10:02:47;12.00;;;7.88;;
60038;SDS011;45916;52.734;6.544;2024-02-26T10:05:14;9.95;;;7.03;;
60038;SDS011;45916;52.734;6.544;2024-02-26T10:07:43;12.30;;;7.90;;
60038;SDS011;45916;52.734;6.544;2024-02-26T10:10:10;9.82;;;7.82;;
60038;SDS011;45916;52.734;6.544;2024-02-26T10:12:36;10.82;;;7.55;;
60038;SDS011;45916;52.734;6.544;2024-02-26T10:15:02;10.45;;;7.30;;
60038;SDS011;45916;52.734;6.544;2024-02-26T10:17:28;10.13;;;7.18;;
60038;SDS011;45916;52.734;6.544;2024-02-26T10:19:54;10.32;;;7.57;;
60038;SDS011;45916;52.734;6.544;2024-02-26T10:22:35;10.63;;;7.40;;
60038;SDS011;45916;52.734;6.544;2024-02-26T10:25:01;12.13;;;8.63;;
60038;SDS011;45916;52.734;6.544;2024-02-26T10:27:28;10.90;;;7.55;;
60038;SDS011;45916;52.734;6.544;2024-02-26T10:29:56;10.52;;;7.63;;
60038;SDS011;45916;52.734;6.544;2024-02-26T10:32:22;11.32;;;7.55;;
60038;SDS011;45916;52.734;6.544;2024-02-26T10:34:48;12.38;;;7.80;;
60038;SDS011;45916;52.734;6.544;2024-02-26T10:37:14;10.77;;;7.53;;
60038;SDS011;45916;52.734;6.544;2024-02-26T10:39:46;10.88;;;7.78;;
60038;SDS011;45916;52.734;6.544;2024-02-26T10:42:12;11.77;;;7.82;;
60038;SDS011;45916;52.734;6.544;2024-02-26T10:44:40;11.88;;;6.93;;
60038;SDS011;45916;52.734;6.544;2024-02-26T10:47:07;10.48;;;7.60;;
60038;SDS011;45916;52.734;6.544;2024-02-26T10:49:35;9.73;;;7.30;;
60038;SDS011;45916;52.734;6.544;2024-02-26T10:52:01;10.13;;;7.57;;
60038;SDS011;45916;52.734;6.544;2024-02-26T10:54:29;10.95;;;7.60;;
60038;SDS011;45916;52.734;6.544;2024-02-26T10:56:56;12.80;;;8.80;;
60038;SDS011;45916;52.734;6.544;2024-02-26T10:59:22;11.95;;;7.82;;
60038;SDS011;45916;52.734;6.544;2024-02-26T11:01:49;11.77;;;7.97;;
60038;SDS011;45916;52.734;6.544;2024-02-26T11:04:16;12.13;;;8.55;;
60038;SDS011;45916;52.734;6.544;2024-02-26T11:06:43;11.25;;;7.72;;
60038;SDS011;45916;52.734;6.544;2024-02-26T11:09:10;10.15;;;7.57;;
60038;SDS011;45916;52.734;6.544;2024-02-26T11:11:38;12.30;;;8.45;;
60038;SDS011;45916;52.734;6.544;2024-02-26T11:14:05;12.45;;;8.13;;
60038;SDS011;45916;52.734;6.544;2024-02-26T11:16:33;12.90;;;8.18;;
60038;SDS011;45916;52.734;6.544;2024-02-26T11:19:01;12.23;;;8.65;;
60038;SDS011;45916;52.734;6.544;2024-02-26T11:21:28;10.50;;;8.30;;
60038;SDS011;45916;52.734;6.544;2024-02-26T11:24:14;11.27;;;8.05;;
60038;SDS011;45916;52.734;6.544;2024-02-26T11:29:10;11.60;;;8.30;;
60038;SDS011;45916;52.734;6.544;2024-02-26T11:31:37;12.25;;;7.72;;
60038;SDS011;45916;52.734;6.544;2024-02-26T11:34:04;11.68;;;8.25;;
60038;SDS011;45916;52.734;6.544;2024-02-26T11:36:30;11.65;;;8.00;;
60038;SDS011;45916;52.734;6.544;2024-02-26T11:38:56;11.98;;;8.82;;
60038;SDS011;45916;52.734;6.544;2024-02-26T11:41:22;11.05;;;7.65;;
60038;SDS011;45916;52.734;6.544;2024-02-26T11:43:53;13.05;;;8.38;;
60038;SDS011;45916;52.734;6.544;2024-02-26T11:48:54;10.32;;;7.72;;
60038;SDS011;45916;52.734;6.544;2024-02-26T11:51:24;12.15;;;8.60;;
60038;SDS011;45916;52.734;6.544;2024-02-26T11:53:51;10.95;;;7.72;;
60038;SDS011;45916;52.734;6.544;2024-02-26T11:58:44;11.07;;;7.93;;
60038;SDS011;45916;52.734;6.544;2024-02-26T12:03:55;11.48;;;8.18;;
60038;SDS011;45916;52.734;6.544;2024-02-26T12:06:22;11.15;;;8.55;;
60038;SDS011;45916;52.734;6.544;2024-02-26T12:08:50;10.52;;;7.75;;
60038;SDS011;45916;52.734;6.544;2024-02-26T12:11:16;12.18;;;7.72;;
60038;SDS011;45916;52.734;6.544;2024-02-26T12:13:45;10.82;;;8.38;;
60038;SDS011;45916;52.734;6.544;2024-02-26T12:16:21;11.75;;;8.43;;
60038;SDS011;45916;52.734;6.544;2024-02-26T12:19:00;13.25;;;8.88;;
60038;SDS011;45916;52.734;6.544;2024-02-26T12:21:27;12.45;;;8.63;;
60038;SDS011;45916;52.734;6.544;2024-02-26T12:23:53;9.95;;;7.53;;
60038;SDS011;45916;52.734;6.544;2024-02-26T12:26:19;11.55;;;7.82;;
60038;SDS011;45916;52.734;6.544;2024-02-26T12:28:46;11.77;;;8.13;;
60038;SDS011;45916;52.734;6.544;2024-02-26T12:31:12;11.98;;;8.35;;
60038;SDS011;45916;52.734;6.544;2024-02-26T12:33:39;12.25;;;7.70;;
60038;SDS011;45916;52.734;6.544;2024-02-26T12:36:05;11.95;;;8.20;;
60038;SDS011;45916;52.734;6.544;2024-02-26T12:38:31;12.00;;;8.65;;
60038;SDS011;45916;52.734;6.544;2024-02-26T12:40:59;11.60;;;7.97;;
60038;SDS011;45916;52.734;6.544;2024-02-26T12:43:25;10.25;;;7.47;;
60038;SDS011;45916;52.734;6.544;2024-02-26T12:45:51;13.18;;;8.70;;
60038;SDS011;45916;52.734;6.544;2024-02-26T12:48:18;11.50;;;8.13;;
60038;SDS011;45916;52.734;6.544;2024-02-26T12:50:45;13.33;;;8.63;;
60038;SDS011;45916;52.734;6.544;2024-02-26T12:53:12;13.18;;;8.82;;
60038;SDS011;45916;52.734;6.544;2024-02-26T12:55:38;10.13;;;7.53;;
60038;SDS011;45916;52.734;6.544;2024-02-26T12:58:05;11.77;;;8.50;;
60038;SDS011;45916;52.734;6.544;2024-02-26T13:00:31;9.75;;;7.43;;
60038;SDS011;45916;52.734;6.544;2024-02-26T13:02:59;11.70;;;7.95;;
60038;SDS011;45916;52.734;6.544;2024-02-26T13:05:25;10.02;;;7.65;;
60038;SDS011;45916;52.734;6.544;2024-02-26T13:07:51;10.20;;;7.25;;
60038;SDS011;45916;52.734;6.544;2024-02-26T13:10:18;10.57;;;7.53;;
60038;SDS011;45916;52.734;6.544;2024-02-26T13:15:18;12.00;;;8.75;;
60038;SDS011;45916;52.734;6.544;2024-02-26T13:17:48;11.98;;;8.35;;
60038;SDS011;45916;52.734;6.544;2024-02-26T13:20:25;11.18;;;8.23;;
60038;SDS011;45916;52.734;6.544;2024-02-26T13:22:51;11.23;;;8.52;;
60038;SDS011;45916;52.734;6.544;2024-02-26T13:25:25;11.32;;;7.70;;
60038;SDS011;45916;52.734;6.544;2024-02-26T13:27:51;11.52;;;7.45;;
60038;SDS011;45916;52.734;6.544;2024-02-26T13:30:17;10.20;;;7.30;;
60038;SDS011;45916;52.734;6.544;2024-02-26T13:32:44;11.75;;;7.75;;
60038;SDS011;45916;52.734;6.544;2024-02-26T13:35:12;10.48;;;7.22;;
60038;SDS011;45916;52.734;6.544;2024-02-26T13:37:39;10.43;;;7.32;;
60038;SDS011;45916;52.734;6.544;2024-02-26T13:40:06;9.57;;;7.35;;
60038;SDS011;45916;52.734;6.544;2024-02-26T13:42:33;11.57;;;8.25;;
60038;SDS011;45916;52.734;6.544;2024-02-26T13:44:59;12.23;;;8.48;;
60038;SDS011;45916;52.734;6.544;2024-02-26T13:47:25;11.73;;;8.82;;
60038;SDS011;45916;52.734;6.544;2024-02-26T13:49:51;12.85;;;8.35;;
60038;SDS011;45916;52.734;6.544;2024-02-26T13:52:18;13.15;;;8.75;;
60038;SDS011;45916;52.734;6.544;2024-02-26T13:54:45;13.00;;;8.65;;
60038;SDS011;45916;52.734;6.544;2024-02-26T13:57:12;12.23;;;8.85;;
60038;SDS011;45916;52.734;6.544;2024-02-26T13:59:43;13.85;;;9.60;;
60038;SDS011;45916;52.734;6.544;2024-02-26T14:02:10;13.57;;;9.43;;
60038;SDS011;45916;52.734;6.544;2024-02-26T14:05:02;12.50;;;9.27;;
60038;SDS011;45916;52.734;6.544;2024-02-26T14:07:28;11.75;;;8.95;;
60038;SDS011;45916;52.734;6.544;2024-02-26T14:09:57;12.60;;;9.27;;
60038;SDS011;45916;52.734;6.544;2024-02-26T14:12:23;13.68;;;9.30;;
60038;SDS011;45916;52.734;6.544;2024-02-26T14:14:49;12.60;;;8.63;;
60038;SDS011;45916;52.734;6.544;2024-02-26T14:17:15;14.98;;;10.10;;
60038;SDS011;45916;52.734;6.544;2024-02-26T14:19:41;13.63;;;8.52;;
60038;SDS011;45916;52.734;6.544;2024-02-26T14:22:13;12.68;;;9.50;;
60038;SDS011;45916;52.734;6.544;2024-02-26T14:24:40;13.20;;;8.80;;
60038;SDS011;45916;52.734;6.544;2024-02-26T14:27:12;14.13;;;9.57;;
60038;SDS011;45916;52.734;6.544;2024-02-26T14:29:42;12.18;;;9.18;;
60038;SDS011;45916;52.734;6.544;2024-02-26T14:32:09;12.20;;;9.27;;
60038;SDS011;45916;52.734;6.544;2024-02-26T14:34:35;12.38;;;8.85;;
60038;SDS011;45916;52.734;6.544;2024-02-26T14:37:01;13.55;;;9.65;;
60038;SDS011;45916;52.734;6.544;2024-02-26T14:39:27;12.52;;;9.43;;
60038;SDS011;45916;52.734;6.544;2024-02-26T14:41:54;12.18;;;8.70;;